sensor_id;sensor_type;location;lat;lon;timestamp;P1;durP1;ratioP1;P2;durP2;ratioP2
60060;SDS011;45933;51.336;12.612;2023-04-25T00:01:58;5.23;;;3.60;;
60060;SDS011;45933;51.336;12.612;2023-04-25T00:04:24;6.23;;;3.70;;
60060;SDS011;45933;51.336;12.612;2023-04-25T00:06:50;6.33;;;3.40;;
60060;SDS011;45933;51.336;12.612;2023-04-25T00:09:17;5.87;;;3.63;;
60060;SDS011;45933;51.336;12.612;2023-04-25T00:11:42;5.03;;;3.70;;
60060;SDS011;45933;51.336;12.612;2023-04-25T00:14:07;5.13;;;3.90;;
60060;SDS011;45933;51.336;12.612;2023-04-25T00:16:33;5.33;;;3.37;;
60060;SDS011;45933;51.336;12.612;2023-04-25T00:19:00;5.03;;;3.87;;
60060;SDS011;45933;51.336;12.612;2023-04-25T00:21:26;6.53;;;3.40;;
60060;SDS011;45933;51.336;12.612;2023-04-25T00:23:53;6.90;;;3.70;;
60060;SDS011;45933;51.336;12.612;2023-04-25T00:26:19;7.17;;;3.90;;
60060;SDS011;45933;51.336;12.612;2023-04-25T00:28:46;5.87;;;3.70;;
60060;SDS011;45933;51.336;12.612;2023-04-25T00:31:11;5.07;;;3.77;;
60060;SDS011;45933;51.336;12.612;2023-04-25T00:33:37;5.60;;;3.80;;
60060;SDS011;45933;51.336;12.612;2023-04-25T00:36:02;8.37;;;4.37;;
60060;SDS011;45933;51.336;12.612;2023-04-25T00:38:28;8.10;;;4.70;;
60060;SDS011;45933;51.336;12.612;2023-04-25T00:40:53;6.30;;;4.17;;
60060;SDS011;45933;51.336;12.612;2023-04-25T00:43:20;8.60;;;4.80;;
60060;SDS011;45933;51.336;12.612;2023-04-25T00:45:46;6.43;;;3.90;;
60060;SDS011;45933;51.336;12.612;2023-04-25T00:48:13;5.87;;;4.10;;
60060;SDS011;45933;51.336;12.612;2023-04-25T00:50:39;6.87;;;3.73;;
60060;SDS011;45933;51.336;12.612;2023-04-25T00:53:05;9.87;;;4.60;;
60060;SDS011;45933;51.336;12.612;2023-04-25T00:55:31;12.63;;;5.13;;
60060;SDS011;45933;51.336;12.612;2023-04-25T00:57:57;6.57;;;4.80;;
60060;SDS011;45933;51.336;12.612;2023-04-25T01:00:22;6.40;;;4.13;;
60060;SDS011;45933;51.336;12.612;2023-04-25T01:02:48;7.60;;;4.60;;
60060;SDS011;45933;51.336;12.612;2023-04-25T01:05:14;6.67;;;4.77;;
60060;SDS011;45933;51.336;12.612;2023-04-25T01:07:40;9.53;;;4.70;;
60060;SDS011;45933;51.336;12.612;2023-04-25T01:10:06;6.87;;;4.50;;
60060;SDS011;45933;51.336;12.612;2023-04-25T01:12:32;6.07;;;4.20;;
60060;SDS011;45933;51.336;12.612;2023-04-25T01:14:57;7.70;;;4.03;;
60060;SDS011;45933;51.336;12.612;2023-04-25T01:17:23;10.00;;;4.40;;
60060;SDS011;45933;51.336;12.612;2023-04-25T01:19:49;7.47;;;4.53;;
60060;SDS011;45933;51.336;12.612;2023-04-25T01:22:15;7.37;;;3.97;;
60060;SDS011;45933;51.336;12.612;2023-04-25T01:24:41;6.93;;;4.43;;
60060;SDS011;45933;51.336;12.612;2023-04-25T01:27:07;8.17;;;4.90;;
60060;SDS011;45933;51.336;12.612;2023-04-25T01:29:33;9.23;;;4.60;;
60060;SDS011;45933;51.336;12.612;2023-04-25T01:32:00;8.20;;;4.30;;
60060;SDS011;45933;51.336;12.612;2023-04-25T01:34:26;8.63;;;4.80;;
60060;SDS011;45933;51.336;12.612;2023-04-25T01:36:51;6.67;;;4.67;;
60060;SDS011;45933;51.336;12.612;2023-04-25T01:39:18;6.57;;;4.27;;
60060;SDS011;45933;51.336;12.612;2023-04-25T01:41:43;9.87;;;4.77;;
60060;SDS011;45933;51.336;12.612;2023-04-25T01:44:10;9.13;;;5.43;;
60060;SDS011;45933;51.336;12.612;2023-04-25T01:46:35;7.73;;;4.60;;
60060;SDS011;45933;51.336;12.612;2023-04-25T01:49:01;10.13;;;4.63;;
60060;SDS011;45933;51.336;12.612;2023-04-25T01:51:26;7.80;;;5.20;;
60060;SDS011;45933;51.336;12.612;2023-04-25T01:53:52;8.67;;;5.37;;
60060;SDS011;45933;51.336;12.612;2023-04-25T01:56:17;8.87;;;4.70;;
60060;SDS011;45933;51.336;12.612;2023-04-25T01:58:43;9.43;;;4.93;;
60060;SDS011;45933;51.336;12.612;2023-04-25T02:01:09;6.67;;;4.93;;
60060;SDS011;45933;51.336;12.612;2023-04-25T02:03:35;12.03;;;5.07;;
60060;SDS011;45933;51.336;12.612;2023-04-25T02:06:01;6.53;;;5.10;;
60060;SDS011;45933;51.336;12.612;2023-04-25T02:08:26;8.53;;;5.23;;
60060;SDS011;45933;51.336;12.612;2023-04-25T02:10:51;9.37;;;5.00;;
60060;SDS011;45933;51.336;12.612;2023-04-25T02:13:17;7.17;;;4.70;;
60060;SDS011;45933;51.336;12.612;2023-04-25T02:15:42;10.17;;;4.90;;
60060;SDS011;45933;51.336;12.612;2023-04-25T02:18:08;6.13;;;4.70;;
60060;SDS011;45933;51.336;12.612;2023-04-25T02:20:35;10.80;;;5.27;;
60060;SDS011;45933;51.336;12.612;2023-04-25T02:23:01;7.33;;;4.97;;
60060;SDS011;45933;51.336;12.612;2023-04-25T02:25:26;9.77;;;5.27;;
60060;SDS011;45933;51.336;12.612;2023-04-25T02:27:52;9.17;;;4.93;;
60060;SDS011;45933;51.336;12.612;2023-04-25T02:30:17;8.67;;;5.17;;
60060;SDS011;45933;51.336;12.612;2023-04-25T02:32:42;9.20;;;5.23;;
60060;SDS011;45933;51.336;12.612;2023-04-25T02:35:08;9.10;;;5.57;;
60060;SDS011;45933;51.336;12.612;2023-04-25T02:37:34;8.00;;;4.93;;
60060;SDS011;45933;51.336;12.612;2023-04-25T02:40:00;10.07;;;5.40;;
60060;SDS011;45933;51.336;12.612;2023-04-25T02:42:26;8.03;;;4.87;;
60060;SDS011;45933;51.336;12.612;2023-04-25T02:44:52;9.90;;;5.60;;
60060;SDS011;45933;51.336;12.612;2023-04-25T02:47:17;7.33;;;5.13;;
60060;SDS011;45933;51.336;12.612;2023-04-25T02:49:43;8.53;;;5.47;;
60060;SDS011;45933;51.336;12.612;2023-04-25T02:52:08;5.90;;;4.97;;
60060;SDS011;45933;51.336;12.612;2023-04-25T02:54:33;9.70;;;5.67;;
60060;SDS011;45933;51.336;12.612;2023-04-25T02:56:59;8.70;;;5.50;;
60060;SDS011;45933;51.336;12.612;2023-04-25T02:59:25;11.77;;;5.57;;
60060;SDS011;45933;51.336;12.612;2023-04-25T03:01:51;8.93;;;5.33;;
60060;SDS011;45933;51.336;12.612;2023-04-25T03:04:16;11.23;;;5.40;;
60060;SDS011;45933;51.336;12.612;2023-04-25T03:06:41;9.53;;;5.43;;
60060;SDS011;45933;51.336;12.612;2023-04-25T03:09:07;9.47;;;5.47;;
60060;SDS011;45933;51.336;12.612;2023-04-25T03:11:32;9.40;;;5.37;;
60060;SDS011;45933;51.336;12.612;2023-04-25T03:13:57;8.00;;;5.00;;
60060;SDS011;45933;51.336;12.612;2023-04-25T03:16:23;7.20;;;5.30;;
60060;SDS011;45933;51.336;12.612;2023-04-25T03:18:48;8.30;;;5.33;;
60060;SDS011;45933;51.336;12.612;2023-04-25T03:21:15;10.97;;;5.37;;
60060;SDS011;45933;51.336;12.612;2023-04-25T03:23:40;6.63;;;5.13;;
60060;SDS011;45933;51.336;12.612;2023-04-25T03:26:06;9.00;;;5.27;;
60060;SDS011;45933;51.336;12.612;2023-04-25T03:28:31;7.17;;;5.27;;
60060;SDS011;45933;51.336;12.612;2023-04-25T03:30:56;8.10;;;5.40;;
60060;SDS011;45933;51.336;12.612;2023-04-25T03:33:22;8.97;;;6.00;;
60060;SDS011;45933;51.336;12.612;2023-04-25T03:35:47;9.67;;;5.77;;
60060;SDS011;45933;51.336;12.612;2023-04-25T03:38:12;7.50;;;5.10;;
60060;SDS011;45933;51.336;12.612;2023-04-25T03:40:38;11.13;;;6.03;;
60060;SDS011;45933;51.336;12.612;2023-04-25T03:43:03;9.67;;;5.27;;
60060;SDS011;45933;51.336;12.612;2023-04-25T03:45:28;10.13;;;6.03;;
60060;SDS011;45933;51.336;12.612;2023-04-25T03:47:53;10.93;;;5.97;;
60060;SDS011;45933;51.336;12.612;2023-04-25T03:50:19;7.87;;;5.43;;
60060;SDS011;45933;51.336;12.612;2023-04-25T03:52:44;11.40;;;5.80;;
60060;SDS011;45933;51.336;12.612;2023-04-25T03:55:09;9.23;;;5.47;;
60060;SDS011;45933;51.336;12.612;2023-04-25T03:57:35;8.33;;;5.27;;
60060;SDS011;45933;51.336;12.612;2023-04-25T04:00:00;10.93;;;5.73;;
60060;SDS011;45933;51.336;12.612;2023-04-25T04:02:26;8.07;;;5.70;;
60060;SDS011;45933;51.336;12.612;2023-04-25T04:04:51;9.00;;;5.47;;
60060;SDS011;45933;51.336;12.612;2023-04-25T04:07:16;9.70;;;5.80;;
60060;SDS011;45933;51.336;12.612;2023-04-25T04:09:42;17.23;;;5.63;;
60060;SDS011;45933;51.336;12.612;2023-04-25T04:12:07;9.80;;;5.83;;
60060;SDS011;45933;51.336;12.612;2023-04-25T04:14:32;7.83;;;5.47;;
60060;SDS011;45933;51.336;12.612;2023-04-25T04:16:58;11.13;;;5.73;;
60060;SDS011;45933;51.336;12.612;2023-04-25T04:19:23;7.83;;;5.30;;
60060;SDS011;45933;51.336;12.612;2023-04-25T04:21:48;10.13;;;5.40;;
60060;SDS011;45933;51.336;12.612;2023-04-25T04:24:14;10.50;;;5.70;;
60060;SDS011;45933;51.336;12.612;2023-04-25T04:26:41;9.03;;;5.40;;
60060;SDS011;45933;51.336;12.612;2023-04-25T04:29:09;7.77;;;5.33;;
60060;SDS011;45933;51.336;12.612;2023-04-25T04:31:35;9.33;;;5.60;;
60060;SDS011;45933;51.336;12.612;2023-04-25T04:34:00;9.27;;;5.67;;
60060;SDS011;45933;51.336;12.612;2023-04-25T04:36:26;8.47;;;5.70;;
60060;SDS011;45933;51.336;12.612;2023-04-25T04:38:52;8.70;;;5.87;;
60060;SDS011;45933;51.336;12.612;2023-04-25T04:41:18;9.93;;;6.47;;
60060;SDS011;45933;51.336;12.612;2023-04-25T04:43:44;11.70;;;6.43;;
60060;SDS011;45933;51.336;12.612;2023-04-25T04:46:10;12.23;;;6.20;;
60060;SDS011;45933;51.336;12.612;2023-04-25T04:48:35;14.80;;;7.13;;
60060;SDS011;45933;51.336;12.612;2023-04-25T04:51:01;11.77;;;6.20;;
60060;SDS011;45933;51.336;12.612;2023-04-25T04:53:26;14.93;;;5.87;;
60060;SDS011;45933;51.336;12.612;2023-04-25T04:55:52;12.10;;;6.00;;
60060;SDS011;45933;51.336;12.612;2023-04-25T04:58:17;12.03;;;5.77;;
60060;SDS011;45933;51.336;12.612;2023-04-25T05:00:43;8.60;;;5.90;;
60060;SDS011;45933;51.336;12.612;2023-04-25T05:03:08;10.03;;;5.97;;
60060;SDS011;45933;51.336;12.612;2023-04-25T05:05:34;10.37;;;6.30;;
60060;SDS011;45933;51.336;12.612;2023-04-25T05:07:59;11.70;;;6.37;;
60060;SDS011;45933;51.336;12.612;2023-04-25T05:10:25;13.00;;;6.47;;
60060;SDS011;45933;51.336;12.612;2023-04-25T05:12:50;10.67;;;6.67;;
60060;SDS011;45933;51.336;12.612;2023-04-25T05:15:15;12.63;;;6.63;;
60060;SDS011;45933;51.336;12.612;2023-04-25T05:17:41;15.53;;;6.97;;
60060;SDS011;45933;51.336;12.612;2023-04-25T05:20:07;12.03;;;6.80;;
60060;SDS011;45933;51.336;12.612;2023-04-25T05:22:34;13.30;;;7.00;;
60060;SDS011;45933;51.336;12.612;2023-04-25T05:24:59;15.07;;;7.10;;
60060;SDS011;45933;51.336;12.612;2023-04-25T05:27:24;13.90;;;7.33;;
60060;SDS011;45933;51.336;12.612;2023-04-25T05:29:50;10.50;;;6.43;;
60060;SDS011;45933;51.336;12.612;2023-04-25T05:32:16;13.53;;;7.27;;
60060;SDS011;45933;51.336;12.612;2023-04-25T05:34:41;11.63;;;6.80;;
60060;SDS011;45933;51.336;12.612;2023-04-25T05:37:07;14.97;;;6.90;;
60060;SDS011;45933;51.336;12.612;2023-04-25T05:39:32;17.03;;;7.60;;
60060;SDS011;45933;51.336;12.612;2023-04-25T05:41:57;13.40;;;7.20;;
60060;SDS011;45933;51.336;12.612;2023-04-25T05:44:23;13.00;;;7.37;;
60060;SDS011;45933;51.336;12.612;2023-04-25T05:46:48;16.63;;;7.60;;
60060;SDS011;45933;51.336;12.612;2023-04-25T05:49:13;15.27;;;7.83;;
60060;SDS011;45933;51.336;12.612;2023-04-25T05:51:39;15.40;;;8.57;;
60060;SDS011;45933;51.336;12.612;2023-04-25T05:54:04;14.13;;;8.13;;
60060;SDS011;45933;51.336;12.612;2023-04-25T05:56:29;15.13;;;8.07;;
60060;SDS011;45933;51.336;12.612;2023-04-25T05:58:55;15.97;;;7.70;;
60060;SDS011;45933;51.336;12.612;2023-04-25T06:01:21;17.10;;;8.00;;
60060;SDS011;45933;51.336;12.612;2023-04-25T06:03:47;10.53;;;7.73;;
60060;SDS011;45933;51.336;12.612;2023-04-25T06:06:12;11.90;;;7.37;;
60060;SDS011;45933;51.336;12.612;2023-04-25T06:08:38;12.37;;;7.20;;
60060;SDS011;45933;51.336;12.612;2023-04-25T06:11:03;10.83;;;7.47;;
60060;SDS011;45933;51.336;12.612;2023-04-25T06:13:28;14.90;;;7.60;;
60060;SDS011;45933;51.336;12.612;2023-04-25T06:15:54;11.27;;;7.17;;
60060;SDS011;45933;51.336;12.612;2023-04-25T06:18:19;12.60;;;7.63;;
60060;SDS011;45933;51.336;12.612;2023-04-25T06:20:44;12.00;;;7.00;;
60060;SDS011;45933;51.336;12.612;2023-04-25T06:23:10;11.77;;;6.50;;
60060;SDS011;45933;51.336;12.612;2023-04-25T06:25:35;10.93;;;7.20;;
60060;SDS011;45933;51.336;12.612;2023-04-25T06:28:00;16.47;;;5.73;;
60060;SDS011;45933;51.336;12.612;2023-04-25T06:30:25;11.07;;;6.33;;
60060;SDS011;45933;51.336;12.612;2023-04-25T06:32:51;7.97;;;5.63;;
60060;SDS011;45933;51.336;12.612;2023-04-25T06:35:18;9.87;;;5.90;;
60060;SDS011;45933;51.336;12.612;2023-04-25T06:37:43;14.07;;;6.53;;
60060;SDS011;45933;51.336;12.612;2023-04-25T06:40:09;9.90;;;5.60;;
60060;SDS011;45933;51.336;12.612;2023-04-25T06:42:35;8.90;;;5.60;;
60060;SDS011;45933;51.336;12.612;2023-04-25T06:45:00;11.47;;;5.57;;
60060;SDS011;45933;51.336;12.612;2023-04-25T06:47:26;12.63;;;5.33;;
60060;SDS011;45933;51.336;12.612;2023-04-25T06:49:51;9.17;;;5.33;;
60060;SDS011;45933;51.336;12.612;2023-04-25T06:52:16;13.57;;;5.10;;
60060;SDS011;45933;51.336;12.612;2023-04-25T06:54:43;9.50;;;5.13;;
60060;SDS011;45933;51.336;12.612;2023-04-25T06:57:08;9.57;;;5.20;;
60060;SDS011;45933;51.336;12.612;2023-04-25T06:59:33;12.10;;;4.80;;
60060;SDS011;45933;51.336;12.612;2023-04-25T07:01:58;7.30;;;4.33;;
60060;SDS011;45933;51.336;12.612;2023-04-25T07:04:24;7.83;;;4.20;;
60060;SDS011;45933;51.336;12.612;2023-04-25T07:06:50;8.47;;;4.10;;
60060;SDS011;45933;51.336;12.612;2023-04-25T07:09:15;7.27;;;4.07;;
60060;SDS011;45933;51.336;12.612;2023-04-25T07:11:41;8.97;;;4.17;;
60060;SDS011;45933;51.336;12.612;2023-04-25T07:14:06;11.03;;;4.27;;
60060;SDS011;45933;51.336;12.612;2023-04-25T07:16:32;8.30;;;4.17;;
60060;SDS011;45933;51.336;12.612;2023-04-25T07:18:57;8.67;;;4.50;;
60060;SDS011;45933;51.336;12.612;2023-04-25T07:21:22;9.07;;;4.70;;
60060;SDS011;45933;51.336;12.612;2023-04-25T07:23:48;7.53;;;4.33;;
60060;SDS011;45933;51.336;12.612;2023-04-25T07:26:13;10.67;;;4.50;;
60060;SDS011;45933;51.336;12.612;2023-04-25T07:28:38;6.93;;;4.20;;
60060;SDS011;45933;51.336;12.612;2023-04-25T07:31:04;5.90;;;4.20;;
60060;SDS011;45933;51.336;12.612;2023-04-25T07:33:30;7.83;;;4.87;;
60060;SDS011;45933;51.336;12.612;2023-04-25T07:35:55;9.10;;;4.67;;
60060;SDS011;45933;51.336;12.612;2023-04-25T07:38:21;7.10;;;4.20;;
60060;SDS011;45933;51.336;12.612;2023-04-25T07:40:49;10.30;;;5.20;;
60060;SDS011;45933;51.336;12.612;2023-04-25T07:43:14;10.30;;;4.90;;
60060;SDS011;45933;51.336;12.612;2023-04-25T07:45:44;10.10;;;5.10;;
60060;SDS011;45933;51.336;12.612;2023-04-25T07:48:11;8.37;;;4.80;;
60060;SDS011;45933;51.336;12.612;2023-04-25T07:50:37;8.47;;;4.80;;
60060;SDS011;45933;51.336;12.612;2023-04-25T07:53:02;9.70;;;4.47;;
60060;SDS011;45933;51.336;12.612;2023-04-25T07:55:28;6.20;;;3.93;;
60060;SDS011;45933;51.336;12.612;2023-04-25T07:57:53;8.70;;;4.20;;
60060;SDS011;45933;51.336;12.612;2023-04-25T08:00:19;7.73;;;4.70;;
60060;SDS011;45933;51.336;12.612;2023-04-25T08:02:44;7.73;;;4.53;;
60060;SDS011;45933;51.336;12.612;2023-04-25T08:05:10;8.23;;;4.50;;
60060;SDS011;45933;51.336;12.612;2023-04-25T08:07:39;8.23;;;4.77;;
60060;SDS011;45933;51.336;12.612;2023-04-25T08:10:05;6.07;;;3.87;;
60060;SDS011;45933;51.336;12.612;2023-04-25T08:12:31;8.30;;;4.93;;
60060;SDS011;45933;51.336;12.612;2023-04-25T08:14:57;9.90;;;4.40;;
60060;SDS011;45933;51.336;12.612;2023-04-25T08:17:22;10.13;;;5.20;;
60060;SDS011;45933;51.336;12.612;2023-04-25T08:19:47;10.30;;;5.53;;
60060;SDS011;45933;51.336;12.612;2023-04-25T08:22:13;11.90;;;4.80;;
60060;SDS011;45933;51.336;12.612;2023-04-25T08:24:39;8.93;;;4.27;;
60060;SDS011;45933;51.336;12.612;2023-04-25T08:27:05;9.43;;;3.83;;
60060;SDS011;45933;51.336;12.612;2023-04-25T08:29:31;8.97;;;3.87;;
60060;SDS011;45933;51.336;12.612;2023-04-25T08:31:56;7.43;;;3.57;;
60060;SDS011;45933;51.336;12.612;2023-04-25T08:34:22;10.90;;;2.53;;
60060;SDS011;45933;51.336;12.612;2023-04-25T08:36:47;4.43;;;2.20;;
60060;SDS011;45933;51.336;12.612;2023-04-25T08:39:12;9.97;;;2.53;;
60060;SDS011;45933;51.336;12.612;2023-04-25T08:41:38;10.47;;;3.00;;
60060;SDS011;45933;51.336;12.612;2023-04-25T08:44:05;7.47;;;2.50;;
60060;SDS011;45933;51.336;12.612;2023-04-25T08:46:34;6.83;;;2.40;;
60060;SDS011;45933;51.336;12.612;2023-04-25T08:49:02;7.23;;;2.53;;
60060;SDS011;45933;51.336;12.612;2023-04-25T08:51:30;9.80;;;2.70;;
60060;SDS011;45933;51.336;12.612;2023-04-25T08:53:56;7.67;;;2.40;;
60060;SDS011;45933;51.336;12.612;2023-04-25T08:56:33;8.83;;;2.47;;
60060;SDS011;45933;51.336;12.612;2023-04-25T08:58:59;6.47;;;2.70;;
60060;SDS011;45933;51.336;12.612;2023-04-25T09:01:26;7.00;;;2.47;;
60060;SDS011;45933;51.336;12.612;2023-04-25T09:03:52;12.03;;;2.50;;
60060;SDS011;45933;51.336;12.612;2023-04-25T09:06:17;8.67;;;2.20;;
60060;SDS011;45933;51.336;12.612;2023-04-25T09:08:49;9.83;;;2.80;;
60060;SDS011;45933;51.336;12.612;2023-04-25T09:11:15;7.77;;;2.40;;
60060;SDS011;45933;51.336;12.612;2023-04-25T09:13:41;10.57;;;2.87;;
60060;SDS011;45933;51.336;12.612;2023-04-25T09:16:06;5.53;;;2.07;;
60060;SDS011;45933;51.336;12.612;2023-04-25T09:18:33;8.10;;;2.60;;
60060;SDS011;45933;51.336;12.612;2023-04-25T09:21:09;7.33;;;2.17;;
60060;SDS011;45933;51.336;12.612;2023-04-25T09:23:54;8.10;;;2.80;;
60060;SDS011;45933;51.336;12.612;2023-04-25T09:26:20;10.00;;;2.70;;
60060;SDS011;45933;51.336;12.612;2023-04-25T09:28:46;7.73;;;2.60;;
60060;SDS011;45933;51.336;12.612;2023-04-25T09:31:20;10.53;;;3.13;;
60060;SDS011;45933;51.336;12.612;2023-04-25T09:33:49;9.73;;;2.92;;
60060;SDS011;45933;51.336;12.612;2023-04-25T09:36:14;8.80;;;2.90;;
60060;SDS011;45933;51.336;12.612;2023-04-25T09:38:43;11.10;;;3.22;;
60060;SDS011;45933;51.336;12.612;2023-04-25T09:41:10;7.82;;;2.97;;
60060;SDS011;45933;51.336;12.612;2023-04-25T09:43:38;9.57;;;3.00;;
60060;SDS011;45933;51.336;12.612;2023-04-25T09:46:08;6.97;;;2.58;;
60060;SDS011;45933;51.336;12.612;2023-04-25T09:48:36;7.15;;;2.90;;
60060;SDS011;45933;51.336;12.612;2023-04-25T09:51:08;8.88;;;2.40;;
60060;SDS011;45933;51.336;12.612;2023-04-25T09:53:38;9.50;;;2.70;;
60060;SDS011;45933;51.336;12.612;2023-04-25T09:56:06;8.38;;;2.25;;
60060;SDS011;45933;51.336;12.612;2023-04-25T09:58:33;8.18;;;2.60;;
60060;SDS011;45933;51.336;12.612;2023-04-25T10:01:01;8.43;;;2.80;;
60060;SDS011;45933;51.336;12.612;2023-04-25T10:03:31;8.17;;;2.93;;
60060;SDS011;45933;51.336;12.612;2023-04-25T10:06:01;12.40;;;3.20;;
60060;SDS011;45933;51.336;12.612;2023-04-25T10:08:35;10.10;;;2.80;;
60060;SDS011;45933;51.336;12.612;2023-04-25T10:11:03;13.27;;;3.10;;
60060;SDS011;45933;51.336;12.612;2023-04-25T10:13:30;8.93;;;2.77;;
60060;SDS011;45933;51.336;12.612;2023-04-25T10:15:57;13.20;;;3.07;;
60060;SDS011;45933;51.336;12.612;2023-04-25T10:18:24;10.73;;;3.07;;
60060;SDS011;45933;51.336;12.612;2023-04-25T10:20:54;10.27;;;2.97;;
60060;SDS011;45933;51.336;12.612;2023-04-25T10:23:21;18.57;;;3.63;;
60060;SDS011;45933;51.336;12.612;2023-04-25T10:25:46;13.43;;;3.33;;
60060;SDS011;45933;51.336;12.612;2023-04-25T10:28:13;14.43;;;4.30;;
60060;SDS011;45933;51.336;12.612;2023-04-25T10:30:40;11.47;;;3.47;;
60060;SDS011;45933;51.336;12.612;2023-04-25T10:33:28;8.97;;;3.47;;
60060;SDS011;45933;51.336;12.612;2023-04-25T10:35:58;10.53;;;3.50;;
60060;SDS011;45933;51.336;12.612;2023-04-25T10:38:24;8.97;;;3.60;;
60060;SDS011;45933;51.336;12.612;2023-04-25T10:41:07;8.03;;;3.60;;
60060;SDS011;45933;51.336;12.612;2023-04-25T10:43:35;9.40;;;3.23;;
60060;SDS011;45933;51.336;12.612;2023-04-25T10:46:15;13.57;;;4.17;;
60060;SDS011;45933;51.336;12.612;2023-04-25T10:51:21;12.57;;;3.97;;
60060;SDS011;45933;51.336;12.612;2023-04-25T10:56:22;10.73;;;4.00;;
60060;SDS011;45933;51.336;12.612;2023-04-25T10:58:48;15.68;;;4.10;;
60060;SDS011;45933;51.336;12.612;2023-04-25T11:01:15;16.50;;;4.30;;
60060;SDS011;45933;51.336;12.612;2023-04-25T11:03:45;13.37;;;3.93;;
60060;SDS011;45933;51.336;12.612;2023-04-25T11:06:15;13.00;;;4.43;;
60060;SDS011;45933;51.336;12.612;2023-04-25T11:08:56;10.67;;;4.00;;
60060;SDS011;45933;51.336;12.612;2023-04-25T11:11:23;12.73;;;4.20;;
60060;SDS011;45933;51.336;12.612;2023-04-25T11:13:49;10.87;;;4.57;;
60060;SDS011;45933;51.336;12.612;2023-04-25T11:16:15;14.53;;;4.03;;
60060;SDS011;45933;51.336;12.612;2023-04-25T11:18:41;13.10;;;4.53;;
60060;SDS011;45933;51.336;12.612;2023-04-25T11:21:07;12.63;;;4.50;;
60060;SDS011;45933;51.336;12.612;2023-04-25T11:23:32;13.13;;;5.03;;
60060;SDS011;45933;51.336;12.612;2023-04-25T11:26:01;11.30;;;4.37;;
60060;SDS011;45933;51.336;12.612;2023-04-25T11:28:26;10.00;;;3.93;;
60060;SDS011;45933;51.336;12.612;2023-04-25T11:30:52;10.63;;;3.47;;
60060;SDS011;45933;51.336;12.612;2023-04-25T11:33:17;15.60;;;4.13;;
60060;SDS011;45933;51.336;12.612;2023-04-25T11:35:47;10.83;;;4.10;;
60060;SDS011;45933;51.336;12.612;2023-04-25T11:38:13;12.13;;;4.27;;
60060;SDS011;45933;51.336;12.612;2023-04-25T11:40:38;13.67;;;4.30;;
60060;SDS011;45933;51.336;12.612;2023-04-25T11:43:05;8.80;;;3.90;;
60060;SDS011;45933;51.336;12.612;2023-04-25T11:45:30;10.67;;;4.20;;
60060;SDS011;45933;51.336;12.612;2023-04-25T11:47:56;13.73;;;4.37;;
60060;SDS011;45933;51.336;12.612;2023-04-25T11:50:21;12.70;;;4.13;;
60060;SDS011;45933;51.336;12.612;2023-04-25T11:52:47;12.93;;;4.80;;
60060;SDS011;45933;51.336;12.612;2023-04-25T11:55:13;12.70;;;5.10;;
60060;SDS011;45933;51.336;12.612;2023-04-25T11:57:43;13.47;;;5.00;;
60060;SDS011;45933;51.336;12.612;2023-04-25T12:00:12;12.63;;;4.37;;
60060;SDS011;45933;51.336;12.612;2023-04-25T12:02:40;12.53;;;4.43;;
60060;SDS011;45933;51.336;12.612;2023-04-25T12:05:11;13.33;;;4.77;;
60060;SDS011;45933;51.336;12.612;2023-04-25T12:07:37;11.17;;;4.60;;
60060;SDS011;45933;51.336;12.612;2023-04-25T12:10:10;12.33;;;4.30;;
60060;SDS011;45933;51.336;12.612;2023-04-25T12:12:37;13.43;;;4.80;;
60060;SDS011;45933;51.336;12.612;2023-04-25T12:15:24;14.00;;;4.20;;
60060;SDS011;45933;51.336;12.612;2023-04-25T12:17:51;8.90;;;3.57;;
60060;SDS011;45933;51.336;12.612;2023-04-25T12:20:19;9.80;;;3.53;;
60060;SDS011;45933;51.336;12.612;2023-04-25T12:22:48;16.93;;;3.67;;
60060;SDS011;45933;51.336;12.612;2023-04-25T12:31:04;9.73;;;3.27;;
60060;SDS011;45933;51.336;12.612;2023-04-25T12:33:35;12.10;;;3.93;;
60060;SDS011;45933;51.336;12.612;2023-04-25T12:36:02;16.77;;;3.57;;
60060;SDS011;45933;51.336;12.612;2023-04-25T12:38:35;8.30;;;2.93;;
60060;SDS011;45933;51.336;12.612;2023-04-25T12:41:02;7.37;;;2.73;;
60060;SDS011;45933;51.336;12.612;2023-04-25T12:43:27;10.97;;;2.93;;
60060;SDS011;45933;51.336;12.612;2023-04-25T12:45:53;10.33;;;2.33;;
60060;SDS011;45933;51.336;12.612;2023-04-25T12:48:20;7.80;;;2.53;;
60060;SDS011;45933;51.336;12.612;2023-04-25T12:50:46;9.60;;;2.93;;
60060;SDS011;45933;51.336;12.612;2023-04-25T12:53:18;8.20;;;2.50;;
60060;SDS011;45933;51.336;12.612;2023-04-25T12:55:44;10.43;;;2.63;;
60060;SDS011;45933;51.336;12.612;2023-04-25T12:58:13;5.83;;;2.43;;
60060;SDS011;45933;51.336;12.612;2023-04-25T13:00:39;8.07;;;2.43;;
60060;SDS011;45933;51.336;12.612;2023-04-25T13:03:04;9.30;;;2.30;;
60060;SDS011;45933;51.336;12.612;2023-04-25T13:05:29;8.77;;;2.50;;
60060;SDS011;45933;51.336;12.612;2023-04-25T13:07:55;9.30;;;2.20;;
60060;SDS011;45933;51.336;12.612;2023-04-25T13:10:21;8.33;;;2.00;;
60060;SDS011;45933;51.336;12.612;2023-04-25T13:12:46;9.77;;;2.50;;
60060;SDS011;45933;51.336;12.612;2023-04-25T13:15:12;9.93;;;2.70;;
60060;SDS011;45933;51.336;12.612;2023-04-25T13:17:37;7.57;;;1.93;;
60060;SDS011;45933;51.336;12.612;2023-04-25T13:20:04;8.20;;;2.13;;
60060;SDS011;45933;51.336;12.612;2023-04-25T13:22:33;6.07;;;1.97;;
60060;SDS011;45933;51.336;12.612;2023-04-25T13:24:59;8.13;;;2.00;;
60060;SDS011;45933;51.336;12.612;2023-04-25T13:27:24;6.37;;;2.23;;
60060;SDS011;45933;51.336;12.612;2023-04-25T13:29:50;5.90;;;2.13;;
60060;SDS011;45933;51.336;12.612;2023-04-25T13:32:15;8.40;;;2.10;;
60060;SDS011;45933;51.336;12.612;2023-04-25T13:34:41;8.63;;;2.20;;
60060;SDS011;45933;51.336;12.612;2023-04-25T13:37:06;4.67;;;1.57;;
60060;SDS011;45933;51.336;12.612;2023-04-25T13:39:31;11.53;;;2.33;;
60060;SDS011;45933;51.336;12.612;2023-04-25T13:41:57;7.80;;;1.60;;
60060;SDS011;45933;51.336;12.612;2023-04-25T13:44:22;5.23;;;1.47;;
60060;SDS011;45933;51.336;12.612;2023-04-25T13:46:47;4.53;;;1.60;;
60060;SDS011;45933;51.336;12.612;2023-04-25T13:49:13;5.17;;;1.40;;
60060;SDS011;45933;51.336;12.612;2023-04-25T13:51:38;5.10;;;1.50;;
60060;SDS011;45933;51.336;12.612;2023-04-25T13:54:04;6.53;;;1.70;;
60060;SDS011;45933;51.336;12.612;2023-04-25T13:56:29;7.00;;;1.73;;
60060;SDS011;45933;51.336;12.612;2023-04-25T13:58:55;5.50;;;2.07;;
60060;SDS011;45933;51.336;12.612;2023-04-25T14:01:21;8.50;;;2.10;;
60060;SDS011;45933;51.336;12.612;2023-04-25T14:03:47;5.83;;;1.90;;
60060;SDS011;45933;51.336;12.612;2023-04-25T14:06:12;5.97;;;2.00;;
60060;SDS011;45933;51.336;12.612;2023-04-25T14:08:38;7.10;;;2.30;;
60060;SDS011;45933;51.336;12.612;2023-04-25T14:11:04;5.30;;;1.70;;
60060;SDS011;45933;51.336;12.612;2023-04-25T14:13:29;6.60;;;2.30;;
60060;SDS011;45933;51.336;12.612;2023-04-25T14:15:54;5.40;;;1.70;;
60060;SDS011;45933;51.336;12.612;2023-04-25T14:18:20;5.13;;;1.67;;
60060;SDS011;45933;51.336;12.612;2023-04-25T14:20:45;6.57;;;1.80;;
60060;SDS011;45933;51.336;12.612;2023-04-25T14:23:11;5.17;;;1.90;;
60060;SDS011;45933;51.336;12.612;2023-04-25T14:25:36;7.70;;;2.00;;
60060;SDS011;45933;51.336;12.612;2023-04-25T14:28:02;5.55;;;2.10;;
60060;SDS011;45933;51.336;12.612;2023-04-25T14:30:28;6.97;;;1.85;;
60060;SDS011;45933;51.336;12.612;2023-04-25T14:32:53;4.20;;;1.67;;
60060;SDS011;45933;51.336;12.612;2023-04-25T14:35:19;5.28;;;1.60;;